createdAt,value
2018-05-23T00:02:19.545Z,4.27
2018-05-23T00:04:47.650Z,4.30
2018-05-23T00:07:15.553Z,4.03
2018-05-23T00:09:43.457Z,4.17
2018-05-23T00:12:11.342Z,4.80
2018-05-23T00:14:39.253Z,4.37
2018-05-23T00:17:07.149Z,4.00
2018-05-23T00:19:35.054Z,3.80
2018-05-23T00:22:02.941Z,4.60
2018-05-23T00:24:30.862Z,4.57
2018-05-23T00:26:58.770Z,4.97
2018-05-23T00:29:26.670Z,5.10
2018-05-23T00:31:54.562Z,4.10
2018-05-23T00:34:22.497Z,5.10
2018-05-23T00:36:50.410Z,5.40
2018-05-23T00:39:18.330Z,4.20
2018-05-23T00:41:46.217Z,5.17
2018-05-23T00:44:14.110Z,5.00
2018-05-23T00:46:41.993Z,3.77
2018-05-23T00:49:09.885Z,5.00
2018-05-23T00:51:37.784Z,5.23
2018-05-23T00:54:05.673Z,4.80
2018-05-23T00:56:33.573Z,5.50
2018-05-23T00:59:01.504Z,4.40
2018-05-23T01:01:29.437Z,4.97
2018-05-23T01:03:57.323Z,5.00
2018-05-23T01:06:25.466Z,4.63
2018-05-23T01:08:53.382Z,5.30
2018-05-23T01:11:21.269Z,4.23
2018-05-23T01:13:49.161Z,5.30
2018-05-23T01:16:17.053Z,4.63
2018-05-23T01:18:44.973Z,4.43
2018-05-23T01:21:12.865Z,5.20
2018-05-23T01:23:40.794Z,5.00
2018-05-23T01:26:08.689Z,4.50
2018-05-23T01:28:36.593Z,4.33
2018-05-23T01:31:04.484Z,5.33
2018-05-23T01:33:32.366Z,5.43
2018-05-23T01:36:00.274Z,4.60
2018-05-23T01:38:28.166Z,4.50
2018-05-23T01:40:56.066Z,4.40
2018-05-23T01:43:23.954Z,4.20
2018-05-23T01:45:51.838Z,5.10
2018-05-23T01:48:19.750Z,4.47
2018-05-23T01:50:47.645Z,4.80
2018-05-23T01:53:15.541Z,4.80
2018-05-23T01:55:43.450Z,4.77
2018-05-23T01:58:11.350Z,4.30
2018-05-23T02:00:39.242Z,4.07
2018-05-23T02:03:07.158Z,4.90
2018-05-23T02:05:35.049Z,5.10
2018-05-23T02:08:03.158Z,3.80
2018-05-23T02:10:31.049Z,5.10
2018-05-23T02:12:58.962Z,7.40
2018-05-23T02:15:26.860Z,8.20
2018-05-23T02:17:54.754Z,6.43
2018-05-23T02:20:22.654Z,5.13
2018-05-23T02:22:50.554Z,5.10
2018-05-23T02:25:18.438Z,5.23
2018-05-23T02:27:46.338Z,4.80
2018-05-23T02:30:14.242Z,4.50
2018-05-23T02:32:42.177Z,5.00
2018-05-23T02:35:10.078Z,4.57
2018-05-23T02:37:37.975Z,4.87
2018-05-23T02:40:05.869Z,5.10
2018-05-23T02:42:33.770Z,5.13
2018-05-23T02:45:01.675Z,5.40
2018-05-23T02:47:29.562Z,5.07
2018-05-23T02:49:57.465Z,5.00
2018-05-23T02:52:25.367Z,5.63
2018-05-23T02:54:53.276Z,5.60
2018-05-23T02:57:21.174Z,4.77
2018-05-23T02:59:49.078Z,5.10
2018-05-23T03:02:17.046Z,5.30
2018-05-23T03:04:44.948Z,4.80
2018-05-23T03:07:12.858Z,5.27
2018-05-23T03:09:40.989Z,6.00
2018-05-23T03:12:08.890Z,5.73
2018-05-23T03:14:36.821Z,5.30
2018-05-23T03:17:04.719Z,5.13
2018-05-23T03:19:32.638Z,5.40
2018-05-23T03:22:00.574Z,5.97
2018-05-23T03:24:28.470Z,6.07
2018-05-23T03:26:56.382Z,5.10
2018-05-23T03:29:24.285Z,5.97
2018-05-23T03:31:52.383Z,5.00
2018-05-23T03:34:20.267Z,6.00
2018-05-23T03:36:48.166Z,5.40
2018-05-23T03:39:16.078Z,5.30
2018-05-23T03:41:43.970Z,5.40
2018-05-23T03:44:11.862Z,5.50
2018-05-23T03:46:39.806Z,6.10
2018-05-23T03:49:07.716Z,5.77
2018-05-23T03:51:35.909Z,6.00
2018-05-23T03:54:03.859Z,5.50
2018-05-23T03:56:31.751Z,5.20
2018-05-23T03:58:59.645Z,7.00
2018-05-23T04:01:33.578Z,6.13
2018-05-23T04:04:07.483Z,6.27
2018-05-23T04:06:41.617Z,5.57
2018-05-23T04:09:09.510Z,5.50
2018-05-23T04:11:38.373Z,6.50
2018-05-23T04:14:06.261Z,5.60
2018-05-23T04:16:34.175Z,5.93
2018-05-23T04:19:02.072Z,6.33
2018-05-23T04:21:29.961Z,6.53
2018-05-23T04:23:57.857Z,5.90
2018-05-23T04:26:25.757Z,6.27
2018-05-23T04:28:53.646Z,5.57
2018-05-23T04:31:21.544Z,5.60
2018-05-23T04:33:49.461Z,5.60
2018-05-23T04:36:17.355Z,6.40
2018-05-23T04:38:45.248Z,6.20
2018-05-23T04:41:16.534Z,7.70
2018-05-23T04:43:45.034Z,7.93
2018-05-23T04:46:12.937Z,9.13
2018-05-23T04:48:40.913Z,8.80
2018-05-23T04:51:08.739Z,7.90
2018-05-23T04:53:36.622Z,7.20
2018-05-23T04:56:04.517Z,6.60
2018-05-23T04:58:32.410Z,6.20
2018-05-23T05:01:00.307Z,7.03
2018-05-23T05:03:28.201Z,6.57
2018-05-23T05:05:56.134Z,6.00
2018-05-23T05:08:24.017Z,6.83
2018-05-23T05:10:51.901Z,7.47
2018-05-23T05:13:19.950Z,6.20
2018-05-23T05:15:47.853Z,6.47
2018-05-23T05:18:15.733Z,7.10
2018-05-23T05:20:43.633Z,6.80
2018-05-23T05:23:11.529Z,6.33
2018-05-23T05:25:39.438Z,6.60
2018-05-23T05:28:07.350Z,6.37
2018-05-23T05:30:35.237Z,6.77
2018-05-23T05:33:03.158Z,7.63
2018-05-23T05:35:31.054Z,7.30
2018-05-23T05:37:58.950Z,6.97
2018-05-23T05:40:26.838Z,5.53
2018-05-23T05:42:54.734Z,6.20
2018-05-23T05:45:22.634Z,5.50
2018-05-23T05:47:50.532Z,6.07
2018-05-23T05:50:18.418Z,5.27
2018-05-23T05:52:46.319Z,4.90
2018-05-23T05:55:14.242Z,5.57
2018-05-23T05:57:42.138Z,5.57
2018-05-23T06:00:10.055Z,4.40
2018-05-23T06:02:37.961Z,5.50
2018-05-23T06:05:05.901Z,5.30
2018-05-23T06:07:33.810Z,4.43
2018-05-23T06:10:01.740Z,3.87
2018-05-23T06:12:29.633Z,3.90
2018-05-23T06:14:57.695Z,3.93
2018-05-23T06:17:25.591Z,3.70
2018-05-23T06:19:53.500Z,3.80
2018-05-23T06:22:21.434Z,3.77
2018-05-23T06:24:49.293Z,3.40
2018-05-23T06:27:17.226Z,3.90
2018-05-23T06:29:45.134Z,3.60
2018-05-23T06:32:13.024Z,3.60
2018-05-23T06:34:40.910Z,3.10
2018-05-23T06:37:08.794Z,3.70
2018-05-23T06:39:36.703Z,3.40
2018-05-23T06:42:04.607Z,3.30
2018-05-23T06:44:32.513Z,2.93
2018-05-23T06:47:00.395Z,3.20
2018-05-23T06:49:28.315Z,3.53
2018-05-23T06:51:56.274Z,4.20
2018-05-23T06:54:24.175Z,3.47
2018-05-23T06:56:52.070Z,3.67
2018-05-23T06:59:19.961Z,3.37
2018-05-23T07:01:47.900Z,2.97
2018-05-23T07:04:15.778Z,3.23
2018-05-23T07:06:43.673Z,2.53
2018-05-23T07:09:11.577Z,2.80
2018-05-23T07:11:39.478Z,3.20
2018-05-23T07:14:07.381Z,3.30
2018-05-23T07:16:35.523Z,2.73
2018-05-23T07:19:03.430Z,2.70
2018-05-23T07:21:31.354Z,2.73
2018-05-23T07:23:59.277Z,3.20
2018-05-23T07:26:27.177Z,2.67
2018-05-23T07:28:55.081Z,3.07
2018-05-23T07:31:22.987Z,2.77
2018-05-23T07:33:50.893Z,3.20
2018-05-23T07:36:18.783Z,2.80
2018-05-23T07:38:46.714Z,2.13
2018-05-23T07:41:14.614Z,2.43
2018-05-23T07:43:42.514Z,2.20
2018-05-23T07:46:10.415Z,2.90
2018-05-23T07:48:38.301Z,3.13
2018-05-23T07:51:06.200Z,6.30
2018-05-23T07:53:34.077Z,2.20
2018-05-23T07:56:01.965Z,2.77
2018-05-23T07:58:29.861Z,2.50
2018-05-23T08:00:57.762Z,2.67
2018-05-23T08:03:25.669Z,2.90
2018-05-23T08:05:53.570Z,2.70
2018-05-23T08:08:21.458Z,2.50
2018-05-23T08:10:49.349Z,2.40
2018-05-23T08:13:17.291Z,2.23
2018-05-23T08:15:45.165Z,2.73
2018-05-23T08:18:13.339Z,2.37
2018-05-23T08:20:41.230Z,2.30
2018-05-23T08:23:09.129Z,2.73
2018-05-23T08:25:37.034Z,2.53
2018-05-23T08:28:04.938Z,2.10
2018-05-23T08:30:32.822Z,2.43
2018-05-23T08:33:00.705Z,2.50
2018-05-23T08:35:28.606Z,2.50
2018-05-23T08:37:56.507Z,2.50
2018-05-23T08:40:24.413Z,2.80
2018-05-23T08:42:52.301Z,2.40
2018-05-23T08:45:20.189Z,2.33
2018-05-23T08:47:48.074Z,2.20
2018-05-23T08:50:15.953Z,2.33
2018-05-23T08:52:43.839Z,1.90
2018-05-23T08:55:11.732Z,2.47
2018-05-23T08:57:39.641Z,2.40
2018-05-23T09:00:07.545Z,2.40
2018-05-23T09:02:35.489Z,2.33
2018-05-23T09:05:03.443Z,2.33
2018-05-23T09:07:31.289Z,2.10
2018-05-23T09:09:59.240Z,1.83
2018-05-23T09:12:27.326Z,2.13
2018-05-23T09:14:55.042Z,2.57
2018-05-23T09:17:22.937Z,3.00
2018-05-23T09:19:51.074Z,2.80
2018-05-23T09:22:18.961Z,2.13
2018-05-23T09:24:46.857Z,1.90
2018-05-23T09:27:14.747Z,2.40
2018-05-23T09:29:42.649Z,1.80
2018-05-23T09:32:10.539Z,1.67
2018-05-23T09:34:38.481Z,1.83
2018-05-23T09:37:06.422Z,2.60
2018-05-23T09:39:34.330Z,1.90
2018-05-23T09:42:02.209Z,2.30
2018-05-23T09:44:30.151Z,2.00
2018-05-23T09:46:58.034Z,1.90
2018-05-23T09:49:25.929Z,1.67
2018-05-23T09:51:53.830Z,1.90
2018-05-23T09:54:21.725Z,2.47
2018-05-23T09:56:49.651Z,2.20
2018-05-23T09:59:17.557Z,2.13
2018-05-23T10:01:45.441Z,1.80
2018-05-23T10:04:13.342Z,1.60
2018-05-23T10:06:41.217Z,2.17
2018-05-23T10:09:09.103Z,1.70
2018-05-23T10:11:37.003Z,1.93
2018-05-23T10:14:04.926Z,1.60
2018-05-23T10:16:32.814Z,1.50
2018-05-23T10:19:00.705Z,1.43
2018-05-23T10:21:28.853Z,1.63
2018-05-23T10:23:56.738Z,2.47
2018-05-23T10:26:24.669Z,1.60
2018-05-23T10:28:52.529Z,1.70
2018-05-23T10:31:20.409Z,1.60
2018-05-23T10:33:48.293Z,1.67
2018-05-23T10:36:16.212Z,1.87
2018-05-23T10:38:44.098Z,2.00
2018-05-23T10:41:11.993Z,2.00
2018-05-23T10:43:39.894Z,1.80
2018-05-23T10:46:07.853Z,1.87
2018-05-23T10:48:35.697Z,1.80
2018-05-23T10:51:03.587Z,2.17
2018-05-23T10:53:31.489Z,1.70
2018-05-23T10:55:59.508Z,1.90
2018-05-23T10:58:27.466Z,2.77
2018-05-23T11:00:55.353Z,1.80
2018-05-23T11:03:23.313Z,2.10
2018-05-23T11:05:51.231Z,2.07
2018-05-23T11:08:19.088Z,1.77
2018-05-23T11:10:46.981Z,1.70
2018-05-23T11:13:14.902Z,1.60
2018-05-23T11:15:42.826Z,2.07
2018-05-23T11:18:10.733Z,1.77
2018-05-23T11:20:38.642Z,1.40
2018-05-23T11:23:06.701Z,2.27
2018-05-23T11:25:34.585Z,2.00
2018-05-23T11:28:02.486Z,2.07
2018-05-23T11:30:30.401Z,1.97
2018-05-23T11:32:58.283Z,1.83
2018-05-23T11:35:26.181Z,1.90
2018-05-23T11:37:54.060Z,1.73
2018-05-23T11:40:21.957Z,1.87
2018-05-23T11:42:49.876Z,1.67
2018-05-23T11:45:17.769Z,1.20
2018-05-23T11:47:45.669Z,1.47
2018-05-23T11:50:13.565Z,1.77
2018-05-23T11:52:41.474Z,1.77
2018-05-23T11:55:09.406Z,2.00
2018-05-23T11:57:37.290Z,2.27
2018-05-23T12:00:05.192Z,1.60
2018-05-23T12:02:33.065Z,1.70
2018-05-23T12:05:00.953Z,2.23
2018-05-23T12:07:28.837Z,2.10
2018-05-23T12:09:56.764Z,2.57
2018-05-23T12:12:24.692Z,1.90
2018-05-23T12:14:52.590Z,1.97
2018-05-23T12:17:20.502Z,2.10
2018-05-23T12:19:48.390Z,2.20
2018-05-23T12:22:16.273Z,2.20
2018-05-23T12:24:44.313Z,2.57
2018-05-23T12:27:12.245Z,2.27
2018-05-23T12:29:40.129Z,2.20
2018-05-23T12:32:08.033Z,1.90
2018-05-23T12:34:35.922Z,2.20
2018-05-23T12:37:03.834Z,2.50
2018-05-23T12:39:31.713Z,2.60
2018-05-23T12:41:59.609Z,2.73
2018-05-23T12:44:27.618Z,2.97
2018-05-23T12:46:55.553Z,2.40
2018-05-23T12:49:23.433Z,2.53
2018-05-23T12:51:51.336Z,2.97
2018-05-23T12:54:19.295Z,2.53
2018-05-23T12:56:47.222Z,2.97
2018-05-23T12:59:15.114Z,2.03
2018-05-23T13:01:43.013Z,2.40
2018-05-23T13:04:10.906Z,1.77
2018-05-23T13:06:38.809Z,2.40
2018-05-23T13:09:06.693Z,2.30
2018-05-23T13:11:34.596Z,2.60
2018-05-23T13:14:02.485Z,2.67
2018-05-23T13:16:30.403Z,2.10
2018-05-23T13:18:58.292Z,2.43
2018-05-23T13:21:26.201Z,2.37
2018-05-23T13:23:54.105Z,2.07
2018-05-23T13:26:22.319Z,2.00
2018-05-23T13:28:50.270Z,2.20
2018-05-23T13:31:18.153Z,2.23
2018-05-23T13:33:46.048Z,2.60
2018-05-23T13:36:13.933Z,2.40
2018-05-23T13:38:41.917Z,2.00
2018-05-23T13:41:09.827Z,2.23
2018-05-23T13:43:37.750Z,2.33
2018-05-23T13:46:05.674Z,2.33
2018-05-23T13:48:33.577Z,1.93
2018-05-23T13:51:01.469Z,2.23
2018-05-23T13:53:29.363Z,2.37
2018-05-23T13:55:57.266Z,2.73
2018-05-23T13:58:25.160Z,2.47
2018-05-23T14:00:53.057Z,4.60
2018-05-23T14:03:20.950Z,3.60
2018-05-23T14:05:48.829Z,2.70
2018-05-23T14:08:16.781Z,2.40
2018-05-23T14:10:44.673Z,1.87
2018-05-23T14:13:12.574Z,2.23
2018-05-23T14:15:40.505Z,2.00
2018-05-23T14:18:08.437Z,4.20
2018-05-23T14:20:36.319Z,1.40
2018-05-23T14:23:04.213Z,2.80
2018-05-23T14:25:32.115Z,2.07
2018-05-23T14:28:00.256Z,2.40
2018-05-23T14:30:28.147Z,2.90
2018-05-23T14:32:56.030Z,2.90
2018-05-23T14:35:23.913Z,2.60
2018-05-23T14:37:51.802Z,2.60
2018-05-23T14:40:19.694Z,2.30
2018-05-23T14:42:47.581Z,1.90
2018-05-23T14:45:15.477Z,2.90
2018-05-23T14:47:43.378Z,2.40
2018-05-23T14:50:11.322Z,2.53
2018-05-23T14:52:39.165Z,1.83
2018-05-23T14:55:07.042Z,2.83
2018-05-23T14:57:34.946Z,2.60
2018-05-23T15:00:02.827Z,2.60
2018-05-23T15:02:30.742Z,2.40
2018-05-23T15:04:58.622Z,2.40
2018-05-23T15:07:26.520Z,1.80
2018-05-23T15:09:54.410Z,3.33
2018-05-23T15:12:22.298Z,2.17
2018-05-23T15:14:50.191Z,2.30
2018-05-23T15:17:18.081Z,2.83
2018-05-23T15:19:45.976Z,2.17
2018-05-23T15:22:16.854Z,2.20
2018-05-23T15:24:44.744Z,2.50
2018-05-23T15:27:12.736Z,3.17
2018-05-23T15:29:40.733Z,6.70
2018-05-23T15:32:08.627Z,4.00
2018-05-23T15:34:36.513Z,3.17
2018-05-23T15:37:04.425Z,2.13
2018-05-23T15:39:32.333Z,1.90
2018-05-23T15:42:00.229Z,2.77
2018-05-23T15:44:28.113Z,2.30
2018-05-23T15:46:55.998Z,2.17
2018-05-23T15:49:23.877Z,2.13
2018-05-23T15:51:51.765Z,2.37
2018-05-23T15:54:19.653Z,2.30
2018-05-23T15:56:47.540Z,1.97
2018-05-23T15:59:15.430Z,2.97
2018-05-23T16:01:43.325Z,2.20
2018-05-23T16:04:11.222Z,2.20
2018-05-23T16:06:39.130Z,2.13
2018-05-23T16:09:07.017Z,2.53
2018-05-23T16:11:34.905Z,2.00
2018-05-23T16:14:02.874Z,1.70
2018-05-23T16:16:30.779Z,2.83
2018-05-23T16:18:58.674Z,8.20
2018-05-23T16:21:26.600Z,3.00
2018-05-23T16:23:54.495Z,2.83
2018-05-23T16:26:22.378Z,2.10
2018-05-23T16:28:50.262Z,1.60
2018-05-23T16:31:18.332Z,1.63
2018-05-23T16:33:46.234Z,2.30
2018-05-23T16:36:14.122Z,2.07
2018-05-23T16:38:42.026Z,2.03
2018-05-23T16:41:09.921Z,2.07
2018-05-23T16:43:37.809Z,1.83
2018-05-23T16:46:05.698Z,2.70
2018-05-23T16:48:33.607Z,2.80
2018-05-23T16:51:01.579Z,2.10
2018-05-23T16:53:29.500Z,1.80
2018-05-23T16:55:57.379Z,1.37
2018-05-23T16:58:25.270Z,1.93
2018-05-23T17:00:53.169Z,2.50
2018-05-23T17:03:21.137Z,2.50
2018-05-23T17:05:49.045Z,2.30
2018-05-23T17:08:16.941Z,2.10
2018-05-23T17:10:44.846Z,2.13
2018-05-23T17:13:12.792Z,2.50
2018-05-23T17:15:40.706Z,1.80
2018-05-23T17:18:08.623Z,1.97
2018-05-23T17:20:36.554Z,1.40
2018-05-23T17:23:04.450Z,1.77
2018-05-23T17:25:32.349Z,2.10
2018-05-23T17:28:00.254Z,2.00
2018-05-23T17:30:28.146Z,2.20
2018-05-23T17:32:56.205Z,1.90
2018-05-23T17:35:24.093Z,1.90
2018-05-23T17:37:51.977Z,2.13
2018-05-23T17:40:19.971Z,4.43
2018-05-23T17:42:47.759Z,2.97
2018-05-23T17:45:15.679Z,2.30
2018-05-23T17:47:43.577Z,2.07
2018-05-23T17:50:11.470Z,1.90
2018-05-23T17:52:39.374Z,2.00
2018-05-23T17:55:07.272Z,2.17
2018-05-23T17:57:35.158Z,2.10
2018-05-23T18:00:03.063Z,2.20
2018-05-23T18:02:30.942Z,1.87
2018-05-23T18:04:58.830Z,2.20
2018-05-23T18:07:26.726Z,3.77
2018-05-23T18:09:54.626Z,2.20
2018-05-23T18:12:22.545Z,1.80
2018-05-23T18:14:50.438Z,1.80
2018-05-23T18:17:18.337Z,2.17
2018-05-23T18:19:46.229Z,1.83
2018-05-23T18:22:14.131Z,1.50
2018-05-23T18:24:42.018Z,2.07
2018-05-23T18:27:09.942Z,1.70
2018-05-23T18:29:37.871Z,1.90
2018-05-23T18:32:05.741Z,2.07
2018-05-23T18:34:33.875Z,1.73
2018-05-23T18:37:01.753Z,2.27
2018-05-23T18:39:29.683Z,1.60
2018-05-23T18:41:57.573Z,2.60
2018-05-23T18:44:25.460Z,1.80
2018-05-23T18:46:53.365Z,2.10
2018-05-23T18:49:21.306Z,2.07
2018-05-23T18:51:49.166Z,2.00
2018-05-23T18:54:17.069Z,1.80
2018-05-23T18:56:44.967Z,2.63
2018-05-23T18:59:12.869Z,2.20
2018-05-23T19:01:40.762Z,3.00
2018-05-23T19:04:08.664Z,2.83
2018-05-23T19:06:37.068Z,2.17
2018-05-23T19:09:05.336Z,1.90
2018-05-23T19:11:33.239Z,2.03
2018-05-23T19:14:01.125Z,1.80
2018-05-23T19:16:29.033Z,2.10
2018-05-23T19:18:56.929Z,2.00
2018-05-23T19:21:24.806Z,2.20
2018-05-23T19:23:52.706Z,2.13
2018-05-23T19:26:20.597Z,3.27
2018-05-23T19:28:48.485Z,2.87
2018-05-23T19:31:16.373Z,2.03
2018-05-23T19:33:44.257Z,2.00
2018-05-23T19:36:12.460Z,2.40
2018-05-23T19:38:40.334Z,2.40
2018-05-23T19:41:08.261Z,2.43
2018-05-23T19:43:36.123Z,2.03
2018-05-23T19:46:04.005Z,2.17
2018-05-23T19:48:31.885Z,1.50
2018-05-23T19:50:59.790Z,2.27
2018-05-23T19:53:27.673Z,3.97
2018-05-23T19:55:55.567Z,5.20
2018-05-23T19:58:23.456Z,3.13
2018-05-23T20:00:51.358Z,2.90
2018-05-23T20:03:19.308Z,2.37
2018-05-23T20:05:47.217Z,2.27
2018-05-23T20:08:15.143Z,2.47
2018-05-23T20:10:43.027Z,2.30
2018-05-23T20:13:10.911Z,2.83
2018-05-23T20:15:38.809Z,3.63
2018-05-23T20:18:06.700Z,4.00
2018-05-23T20:20:34.586Z,2.60
2018-05-23T20:23:02.480Z,2.13
2018-05-23T20:25:30.389Z,2.37
2018-05-23T20:27:58.298Z,2.10
2018-05-23T20:30:26.195Z,1.77
2018-05-23T20:32:54.102Z,1.90
2018-05-23T20:35:22.062Z,2.80
2018-05-23T20:37:50.082Z,2.27
2018-05-23T20:40:17.972Z,2.50
2018-05-23T20:42:45.881Z,2.30
2018-05-23T20:45:13.785Z,4.30
2018-05-23T20:47:41.723Z,3.70
2018-05-23T20:50:09.568Z,3.00
2018-05-23T20:52:37.466Z,3.30
2018-05-23T20:55:05.348Z,4.23
2018-05-23T20:57:33.249Z,4.70
2018-05-23T21:00:01.133Z,3.40
2018-05-23T21:02:29.001Z,2.83
2018-05-23T21:04:56.890Z,2.50
2018-05-23T21:07:24.782Z,2.20
2018-05-23T21:09:52.730Z,2.00
2018-05-23T21:12:20.622Z,2.40
2018-05-23T21:14:48.517Z,2.43
2018-05-23T21:17:16.430Z,2.17
2018-05-23T21:19:44.303Z,2.53
2018-05-23T21:22:12.193Z,2.53
2018-05-23T21:24:40.089Z,2.10
2018-05-23T21:27:07.964Z,2.47
2018-05-23T21:29:35.845Z,2.43
2018-05-23T21:32:03.733Z,2.57
2018-05-23T21:34:31.657Z,2.60
2018-05-23T21:36:59.497Z,2.03
2018-05-23T21:39:27.650Z,2.23
2018-05-23T21:41:55.562Z,2.23
2018-05-23T21:44:23.466Z,2.30
2018-05-23T21:46:51.351Z,2.27
2018-05-23T21:49:19.240Z,2.30
2018-05-23T21:51:47.140Z,2.13
2018-05-23T21:54:15.030Z,2.60
2018-05-23T21:56:42.914Z,2.57
2018-05-23T21:59:10.816Z,2.50
2018-05-23T22:01:38.717Z,1.60
2018-05-23T22:04:06.605Z,2.50
2018-05-23T22:06:34.672Z,2.30
2018-05-23T22:09:02.557Z,2.97
2018-05-23T22:11:30.437Z,2.43
2018-05-23T22:13:58.311Z,2.50
2018-05-23T22:16:26.216Z,2.27
2018-05-23T22:18:54.101Z,2.03
2018-05-23T22:21:22.009Z,2.37
2018-05-23T22:23:49.907Z,2.37
2018-05-23T22:26:17.785Z,2.40
2018-05-23T22:28:45.669Z,2.30
2018-05-23T22:31:13.569Z,2.00
2018-05-23T22:33:41.462Z,2.40
2018-05-23T22:36:09.338Z,2.40
2018-05-23T22:38:37.226Z,1.83
2018-05-23T22:41:05.358Z,2.70
2018-05-23T22:43:33.241Z,2.23
2018-05-23T22:46:01.180Z,2.00
2018-05-23T22:48:29.097Z,2.10
2018-05-23T22:50:56.987Z,2.70
2018-05-23T22:53:24.885Z,2.60
2018-05-23T22:55:52.777Z,2.87
2018-05-23T22:58:20.673Z,2.43
2018-05-23T23:00:48.569Z,2.53
2018-05-23T23:03:16.447Z,2.90
2018-05-23T23:05:44.325Z,2.20
2018-05-23T23:08:12.212Z,2.20
2018-05-23T23:10:40.094Z,3.00
2018-05-23T23:13:07.973Z,2.63
2018-05-23T23:15:35.905Z,2.20
2018-05-23T23:18:03.823Z,2.30
2018-05-23T23:20:31.705Z,2.50
2018-05-23T23:22:59.605Z,2.67
2018-05-23T23:25:27.498Z,2.50
2018-05-23T23:27:55.378Z,2.63
2018-05-23T23:30:23.323Z,2.47
2018-05-23T23:32:51.213Z,2.90
2018-05-23T23:35:19.093Z,2.50
2018-05-23T23:37:46.972Z,2.97
2018-05-23T23:40:14.871Z,2.53
2018-05-23T23:42:42.970Z,2.63
2018-05-23T23:45:10.882Z,2.70
2018-05-23T23:47:38.749Z,2.83
2018-05-23T23:50:06.645Z,3.20
2018-05-23T23:52:34.542Z,3.20
2018-05-23T23:55:02.477Z,2.97
2018-05-23T23:57:30.353Z,3.60
2018-05-23T23:59:58.238Z,3.17
